sensor_id;sensor_type;location;lat;lon;timestamp;P1;durP1;ratioP1;P2;durP2;ratioP2
43606;SDS011;29197;44.788;10.366;2023-04-25T00:00:28;1.13;;;0.65;;
43606;SDS011;29197;44.788;10.366;2023-04-25T00:03:17;1.00;;;0.60;;
43606;SDS011;29197;44.788;10.366;2023-04-25T00:06:06;1.90;;;0.70;;
43606;SDS011;29197;44.788;10.366;2023-04-25T00:08:55;1.15;;;0.70;;
43606;SDS011;29197;44.788;10.366;2023-04-25T00:11:45;1.00;;;0.70;;
43606;SDS011;29197;44.788;10.366;2023-04-25T00:14:34;0.77;;;0.55;;
43606;SDS011;29197;44.788;10.366;2023-04-25T00:17:23;0.80;;;0.60;;
43606;SDS011;29197;44.788;10.366;2023-04-25T00:20:12;0.77;;;0.55;;
43606;SDS011;29197;44.788;10.366;2023-04-25T00:23:01;0.80;;;0.70;;
43606;SDS011;29197;44.788;10.366;2023-04-25T00:25:50;0.90;;;0.75;;
43606;SDS011;29197;44.788;10.366;2023-04-25T00:28:40;1.20;;;0.60;;
43606;SDS011;29197;44.788;10.366;2023-04-25T00:31:28;0.85;;;0.50;;
43606;SDS011;29197;44.788;10.366;2023-04-25T00:34:17;0.80;;;0.80;;
43606;SDS011;29197;44.788;10.366;2023-04-25T00:37:06;0.90;;;0.50;;
43606;SDS011;29197;44.788;10.366;2023-04-25T00:39:57;0.50;;;0.50;;
43606;SDS011;29197;44.788;10.366;2023-04-25T00:42:46;0.55;;;0.55;;
43606;SDS011;29197;44.788;10.366;2023-04-25T00:45:38;0.88;;;0.65;;
43606;SDS011;29197;44.788;10.366;2023-04-25T00:48:27;1.30;;;0.70;;
43606;SDS011;29197;44.788;10.366;2023-04-25T00:51:16;0.63;;;0.63;;
43606;SDS011;29197;44.788;10.366;2023-04-25T00:54:06;0.50;;;0.50;;
43606;SDS011;29197;44.788;10.366;2023-04-25T00:56:55;1.20;;;1.00;;
43606;SDS011;29197;44.788;10.366;2023-04-25T00:59:44;1.35;;;0.70;;
43606;SDS011;29197;44.788;10.366;2023-04-25T01:02:35;0.70;;;0.70;;
43606;SDS011;29197;44.788;10.366;2023-04-25T01:05:24;1.00;;;0.70;;
43606;SDS011;29197;44.788;10.366;2023-04-25T01:08:13;0.63;;;0.63;;
43606;SDS011;29197;44.788;10.366;2023-04-25T01:11:02;0.70;;;0.70;;
43606;SDS011;29197;44.788;10.366;2023-04-25T01:13:51;1.75;;;0.80;;
43606;SDS011;29197;44.788;10.366;2023-04-25T01:16:40;0.70;;;0.70;;
43606;SDS011;29197;44.788;10.366;2023-04-25T01:19:31;1.50;;;0.75;;
43606;SDS011;29197;44.788;10.366;2023-04-25T01:22:21;1.30;;;0.80;;
43606;SDS011;29197;44.788;10.366;2023-04-25T01:25:10;0.70;;;0.70;;
43606;SDS011;29197;44.788;10.366;2023-04-25T01:27:59;1.52;;;0.95;;
43606;SDS011;29197;44.788;10.366;2023-04-25T01:30:48;0.80;;;0.73;;
43606;SDS011;29197;44.788;10.366;2023-04-25T01:33:36;0.68;;;0.68;;
43606;SDS011;29197;44.788;10.366;2023-04-25T01:36:25;0.80;;;0.80;;
43606;SDS011;29197;44.788;10.366;2023-04-25T01:39:16;1.50;;;0.90;;
43606;SDS011;29197;44.788;10.366;2023-04-25T01:42:05;1.00;;;0.77;;
43606;SDS011;29197;44.788;10.366;2023-04-25T01:44:54;0.95;;;0.77;;
43606;SDS011;29197;44.788;10.366;2023-04-25T01:47:43;1.00;;;1.00;;
43606;SDS011;29197;44.788;10.366;2023-04-25T01:50:36;1.80;;;0.70;;
43606;SDS011;29197;44.788;10.366;2023-04-25T01:53:25;1.60;;;1.00;;
43606;SDS011;29197;44.788;10.366;2023-04-25T01:56:15;0.73;;;0.70;;
43606;SDS011;29197;44.788;10.366;2023-04-25T01:59:06;2.47;;;0.93;;
43606;SDS011;29197;44.788;10.366;2023-04-25T02:01:55;3.17;;;1.10;;
43606;SDS011;29197;44.788;10.366;2023-04-25T02:04:44;1.33;;;0.90;;
43606;SDS011;29197;44.788;10.366;2023-04-25T02:07:33;1.50;;;0.70;;
43606;SDS011;29197;44.788;10.366;2023-04-25T02:10:21;1.42;;;1.00;;
43606;SDS011;29197;44.788;10.366;2023-04-25T02:13:11;0.88;;;0.80;;
43606;SDS011;29197;44.788;10.366;2023-04-25T02:16:00;1.10;;;0.90;;
43606;SDS011;29197;44.788;10.366;2023-04-25T02:18:49;1.48;;;1.13;;
43606;SDS011;29197;44.788;10.366;2023-04-25T02:21:39;1.33;;;1.23;;
43606;SDS011;29197;44.788;10.366;2023-04-25T02:24:28;2.08;;;1.10;;
43606;SDS011;29197;44.788;10.366;2023-04-25T02:27:18;5.10;;;1.60;;
43606;SDS011;29197;44.788;10.366;2023-04-25T02:30:09;1.17;;;1.02;;
43606;SDS011;29197;44.788;10.366;2023-04-25T02:32:57;1.30;;;1.15;;
43606;SDS011;29197;44.788;10.366;2023-04-25T02:35:46;2.55;;;1.10;;
43606;SDS011;29197;44.788;10.366;2023-04-25T02:38:35;2.15;;;1.30;;
43606;SDS011;29197;44.788;10.366;2023-04-25T02:41:24;2.90;;;1.40;;
43606;SDS011;29197;44.788;10.366;2023-04-25T02:44:13;1.83;;;1.10;;
43606;SDS011;29197;44.788;10.366;2023-04-25T02:47:03;1.60;;;1.20;;
43606;SDS011;29197;44.788;10.366;2023-04-25T02:49:52;1.67;;;1.20;;
43606;SDS011;29197;44.788;10.366;2023-04-25T02:52:41;2.38;;;1.63;;
43606;SDS011;29197;44.788;10.366;2023-04-25T02:55:29;2.20;;;1.35;;
43606;SDS011;29197;44.788;10.366;2023-04-25T02:58:18;1.55;;;1.10;;
43606;SDS011;29197;44.788;10.366;2023-04-25T03:01:07;2.33;;;1.83;;
43606;SDS011;29197;44.788;10.366;2023-04-25T03:03:57;2.00;;;1.60;;
43606;SDS011;29197;44.788;10.366;2023-04-25T03:06:46;1.20;;;1.10;;
43606;SDS011;29197;44.788;10.366;2023-04-25T03:09:35;1.77;;;1.15;;
43606;SDS011;29197;44.788;10.366;2023-04-25T03:12:23;1.65;;;1.48;;
43606;SDS011;29197;44.788;10.366;2023-04-25T03:15:12;2.10;;;1.33;;
43606;SDS011;29197;44.788;10.366;2023-04-25T03:18:03;2.83;;;1.40;;
43606;SDS011;29197;44.788;10.366;2023-04-25T03:20:53;3.03;;;1.97;;
43606;SDS011;29197;44.788;10.366;2023-04-25T03:23:42;3.47;;;1.90;;
43606;SDS011;29197;44.788;10.366;2023-04-25T03:26:31;4.05;;;2.20;;
43606;SDS011;29197;44.788;10.366;2023-04-25T03:29:20;1.60;;;1.50;;
43606;SDS011;29197;44.788;10.366;2023-04-25T03:32:11;2.63;;;1.70;;
43606;SDS011;29197;44.788;10.366;2023-04-25T03:34:59;2.03;;;1.50;;
43606;SDS011;29197;44.788;10.366;2023-04-25T03:37:50;2.97;;;1.88;;
43606;SDS011;29197;44.788;10.366;2023-04-25T03:40:39;2.22;;;1.60;;
43606;SDS011;29197;44.788;10.366;2023-04-25T03:43:27;1.52;;;1.40;;
43606;SDS011;29197;44.788;10.366;2023-04-25T03:46:16;3.08;;;1.83;;
43606;SDS011;29197;44.788;10.366;2023-04-25T03:49:05;3.25;;;1.55;;
43606;SDS011;29197;44.788;10.366;2023-04-25T03:51:54;1.47;;;1.37;;
43606;SDS011;29197;44.788;10.366;2023-04-25T03:54:44;2.22;;;1.75;;
43606;SDS011;29197;44.788;10.366;2023-04-25T03:57:33;1.85;;;1.70;;
43606;SDS011;29197;44.788;10.366;2023-04-25T04:00:22;3.30;;;2.10;;
43606;SDS011;29197;44.788;10.366;2023-04-25T04:03:11;2.88;;;1.95;;
43606;SDS011;29197;44.788;10.366;2023-04-25T04:06:00;2.47;;;2.28;;
43606;SDS011;29197;44.788;10.366;2023-04-25T04:08:49;1.63;;;1.52;;
43606;SDS011;29197;44.788;10.366;2023-04-25T04:11:39;3.28;;;2.20;;
43606;SDS011;29197;44.788;10.366;2023-04-25T04:14:28;3.33;;;2.47;;
43606;SDS011;29197;44.788;10.366;2023-04-25T04:17:17;3.00;;;2.30;;
43606;SDS011;29197;44.788;10.366;2023-04-25T04:20:06;1.88;;;1.70;;
43606;SDS011;29197;44.788;10.366;2023-04-25T04:22:55;2.33;;;2.00;;
43606;SDS011;29197;44.788;10.366;2023-04-25T04:25:44;2.67;;;1.83;;
43606;SDS011;29197;44.788;10.366;2023-04-25T04:28:34;4.30;;;1.80;;
43606;SDS011;29197;44.788;10.366;2023-04-25T04:31:24;1.90;;;1.77;;
43606;SDS011;29197;44.788;10.366;2023-04-25T04:34:13;2.00;;;1.70;;
43606;SDS011;29197;44.788;10.366;2023-04-25T04:37:03;2.80;;;1.60;;
43606;SDS011;29197;44.788;10.366;2023-04-25T04:39:52;2.20;;;1.70;;
43606;SDS011;29197;44.788;10.366;2023-04-25T04:42:41;2.58;;;1.83;;
43606;SDS011;29197;44.788;10.366;2023-04-25T04:45:31;2.00;;;1.60;;
43606;SDS011;29197;44.788;10.366;2023-04-25T04:48:20;2.47;;;1.45;;
43606;SDS011;29197;44.788;10.366;2023-04-25T04:51:09;1.63;;;1.53;;
43606;SDS011;29197;44.788;10.366;2023-04-25T04:53:58;2.22;;;1.58;;
43606;SDS011;29197;44.788;10.366;2023-04-25T04:56:49;2.00;;;1.50;;
43606;SDS011;29197;44.788;10.366;2023-04-25T04:59:38;2.90;;;1.80;;
43606;SDS011;29197;44.788;10.366;2023-04-25T05:02:29;2.42;;;1.98;;
43606;SDS011;29197;44.788;10.366;2023-04-25T05:05:18;1.70;;;1.60;;
43606;SDS011;29197;44.788;10.366;2023-04-25T05:08:07;2.22;;;1.65;;
43606;SDS011;29197;44.788;10.366;2023-04-25T05:10:56;2.45;;;1.83;;
43606;SDS011;29197;44.788;10.366;2023-04-25T05:13:44;2.65;;;1.70;;
43606;SDS011;29197;44.788;10.366;2023-04-25T05:16:33;1.80;;;1.70;;
43606;SDS011;29197;44.788;10.366;2023-04-25T05:19:23;2.53;;;1.70;;
43606;SDS011;29197;44.788;10.366;2023-04-25T05:22:13;2.67;;;1.80;;
43606;SDS011;29197;44.788;10.366;2023-04-25T05:25:01;5.35;;;2.00;;
43606;SDS011;29197;44.788;10.366;2023-04-25T05:27:51;2.30;;;1.70;;
43606;SDS011;29197;44.788;10.366;2023-04-25T05:30:40;2.47;;;1.67;;
43606;SDS011;29197;44.788;10.366;2023-04-25T05:33:28;2.40;;;1.70;;
43606;SDS011;29197;44.788;10.366;2023-04-25T05:36:19;1.90;;;1.73;;
43606;SDS011;29197;44.788;10.366;2023-04-25T05:39:08;1.97;;;1.77;;
43606;SDS011;29197;44.788;10.366;2023-04-25T05:41:57;2.55;;;1.90;;
43606;SDS011;29197;44.788;10.366;2023-04-25T05:44:45;3.78;;;2.33;;
43606;SDS011;29197;44.788;10.366;2023-04-25T05:47:34;3.20;;;2.30;;
43606;SDS011;29197;44.788;10.366;2023-04-25T05:50:23;3.25;;;2.30;;
43606;SDS011;29197;44.788;10.366;2023-04-25T05:53:13;2.90;;;2.20;;
43606;SDS011;29197;44.788;10.366;2023-04-25T05:56:02;2.00;;;1.80;;
43606;SDS011;29197;44.788;10.366;2023-04-25T05:58:51;3.28;;;2.17;;
43606;SDS011;29197;44.788;10.366;2023-04-25T06:01:40;2.80;;;1.73;;
43606;SDS011;29197;44.788;10.366;2023-04-25T06:04:29;4.50;;;2.40;;
43606;SDS011;29197;44.788;10.366;2023-04-25T06:07:18;4.13;;;2.20;;
43606;SDS011;29197;44.788;10.366;2023-04-25T06:10:09;3.43;;;2.00;;
43606;SDS011;29197;44.788;10.366;2023-04-25T06:12:58;3.97;;;2.17;;
43606;SDS011;29197;44.788;10.366;2023-04-25T06:15:46;2.20;;;1.75;;
43606;SDS011;29197;44.788;10.366;2023-04-25T06:18:35;2.10;;;1.83;;
43606;SDS011;29197;44.788;10.366;2023-04-25T06:21:24;3.37;;;2.07;;
43606;SDS011;29197;44.788;10.366;2023-04-25T06:24:14;4.18;;;2.50;;
43606;SDS011;29197;44.788;10.366;2023-04-25T06:27:04;2.20;;;2.00;;
43606;SDS011;29197;44.788;10.366;2023-04-25T06:29:53;2.22;;;1.70;;
43606;SDS011;29197;44.788;10.366;2023-04-25T06:32:41;2.30;;;1.70;;
43606;SDS011;29197;44.788;10.366;2023-04-25T06:35:30;1.80;;;1.65;;
43606;SDS011;29197;44.788;10.366;2023-04-25T06:38:19;2.30;;;1.95;;
43606;SDS011;29197;44.788;10.366;2023-04-25T06:41:08;1.65;;;1.55;;
43606;SDS011;29197;44.788;10.366;2023-04-25T06:43:58;3.67;;;2.57;;
43606;SDS011;29197;44.788;10.366;2023-04-25T06:46:47;2.33;;;2.13;;
43606;SDS011;29197;44.788;10.366;2023-04-25T06:49:36;1.60;;;1.50;;
43606;SDS011;29197;44.788;10.366;2023-04-25T06:52:19;3.08;;;1.80;;
43606;SDS011;29197;44.788;10.366;2023-04-25T06:55:08;2.42;;;2.00;;
43606;SDS011;29197;44.788;10.366;2023-04-25T06:57:57;2.85;;;1.90;;
43606;SDS011;29197;44.788;10.366;2023-04-25T07:00:48;1.65;;;1.45;;
43606;SDS011;29197;44.788;10.366;2023-04-25T07:03:37;2.22;;;1.50;;
43606;SDS011;29197;44.788;10.366;2023-04-25T07:06:25;3.10;;;1.92;;
43606;SDS011;29197;44.788;10.366;2023-04-25T07:09:14;3.35;;;2.10;;
43606;SDS011;29197;44.788;10.366;2023-04-25T07:12:03;1.80;;;1.50;;
43606;SDS011;29197;44.788;10.366;2023-04-25T07:14:52;2.38;;;2.05;;
43606;SDS011;29197;44.788;10.366;2023-04-25T07:17:42;3.47;;;2.17;;
43606;SDS011;29197;44.788;10.366;2023-04-25T07:20:30;2.30;;;1.85;;
43606;SDS011;29197;44.788;10.366;2023-04-25T07:23:19;2.47;;;2.10;;
43606;SDS011;29197;44.788;10.366;2023-04-25T07:26:08;3.92;;;2.53;;
43606;SDS011;29197;44.788;10.366;2023-04-25T07:28:56;3.55;;;2.38;;
43606;SDS011;29197;44.788;10.366;2023-04-25T07:31:45;4.22;;;2.97;;
43606;SDS011;29197;44.788;10.366;2023-04-25T07:34:36;5.18;;;2.63;;
43606;SDS011;29197;44.788;10.366;2023-04-25T07:37:25;3.90;;;3.15;;
43606;SDS011;29197;44.788;10.366;2023-04-25T07:40:13;2.65;;;2.00;;
43606;SDS011;29197;44.788;10.366;2023-04-25T07:43:03;2.20;;;1.80;;
43606;SDS011;29197;44.788;10.366;2023-04-25T07:45:52;2.47;;;2.28;;
43606;SDS011;29197;44.788;10.366;2023-04-25T07:48:40;4.05;;;3.00;;
43606;SDS011;29197;44.788;10.366;2023-04-25T07:51:31;3.90;;;2.53;;
43606;SDS011;29197;44.788;10.366;2023-04-25T07:54:19;2.42;;;2.20;;
43606;SDS011;29197;44.788;10.366;2023-04-25T07:57:08;2.67;;;1.75;;
43606;SDS011;29197;44.788;10.366;2023-04-25T07:59:57;4.07;;;2.28;;
43606;SDS011;29197;44.788;10.366;2023-04-25T08:02:46;0.85;;;0.70;;
43606;SDS011;29197;44.788;10.366;2023-04-25T08:05:35;0.95;;;0.70;;
43606;SDS011;29197;44.788;10.366;2023-04-25T08:08:25;0.95;;;0.75;;
43606;SDS011;29197;44.788;10.366;2023-04-25T08:11:14;0.77;;;0.50;;
43606;SDS011;29197;44.788;10.366;2023-04-25T08:14:03;0.60;;;0.40;;
43606;SDS011;29197;44.788;10.366;2023-04-25T08:16:51;0.98;;;0.30;;
43606;SDS011;29197;44.788;10.366;2023-04-25T08:19:40;0.30;;;0.30;;
43606;SDS011;29197;44.788;10.366;2023-04-25T08:22:30;1.50;;;0.60;;
43606;SDS011;29197;44.788;10.366;2023-04-25T08:25:20;0.50;;;0.40;;
43606;SDS011;29197;44.788;10.366;2023-04-25T08:28:08;0.40;;;0.40;;
43606;SDS011;29197;44.788;10.366;2023-04-25T08:30:57;0.20;;;0.20;;
43606;SDS011;29197;44.788;10.366;2023-04-25T08:33:46;0.70;;;0.45;;
43606;SDS011;29197;44.788;10.366;2023-04-25T08:36:36;0.30;;;0.28;;
43606;SDS011;29197;44.788;10.366;2023-04-25T08:39:26;1.30;;;0.98;;
43606;SDS011;29197;44.788;10.366;2023-04-25T08:42:16;1.92;;;0.90;;
43606;SDS011;29197;44.788;10.366;2023-04-25T08:45:05;9.18;;;2.30;;
43606;SDS011;29197;44.788;10.366;2023-04-25T08:47:54;3.05;;;1.50;;
43606;SDS011;29197;44.788;10.366;2023-04-25T08:50:45;15.45;;;3.20;;
43606;SDS011;29197;44.788;10.366;2023-04-25T08:53:33;0.43;;;0.38;;
43606;SDS011;29197;44.788;10.366;2023-04-25T08:56:24;17.52;;;4.10;;
43606;SDS011;29197;44.788;10.366;2023-04-25T08:59:16;1.70;;;0.50;;
43606;SDS011;29197;44.788;10.366;2023-04-25T09:02:05;0.80;;;0.30;;
43606;SDS011;29197;44.788;10.366;2023-04-25T09:04:55;1.35;;;0.43;;
43606;SDS011;29197;44.788;10.366;2023-04-25T09:07:44;0.38;;;0.25;;
43606;SDS011;29197;44.788;10.366;2023-04-25T09:10:36;3.08;;;0.40;;
43606;SDS011;29197;44.788;10.366;2023-04-25T09:13:26;1.08;;;0.20;;
43606;SDS011;29197;44.788;10.366;2023-04-25T09:16:16;1.02;;;0.32;;
43606;SDS011;29197;44.788;10.366;2023-04-25T09:19:08;0.35;;;0.30;;
43606;SDS011;29197;44.788;10.366;2023-04-25T09:22:25;0.30;;;0.10;;
43606;SDS011;29197;44.788;10.366;2023-04-25T09:25:14;0.32;;;0.20;;
43606;SDS011;29197;44.788;10.366;2023-04-25T09:28:03;0.22;;;0.22;;
43606;SDS011;29197;44.788;10.366;2023-04-25T09:30:54;1.40;;;0.50;;
43606;SDS011;29197;44.788;10.366;2023-04-25T09:33:46;0.60;;;0.30;;
43606;SDS011;29197;44.788;10.366;2023-04-25T09:36:36;0.28;;;0.20;;
43606;SDS011;29197;44.788;10.366;2023-04-25T09:39:26;0.30;;;0.22;;
43606;SDS011;29197;44.788;10.366;2023-04-25T09:42:17;0.20;;;0.20;;
43606;SDS011;29197;44.788;10.366;2023-04-25T09:45:06;0.40;;;0.20;;
43606;SDS011;29197;44.788;10.366;2023-04-25T09:47:55;2.00;;;0.75;;
43606;SDS011;29197;44.788;10.366;2023-04-25T09:50:46;0.17;;;0.10;;
43606;SDS011;29197;44.788;10.366;2023-04-25T09:53:41;0.50;;;0.50;;
43606;SDS011;29197;44.788;10.366;2023-04-25T09:56:30;0.20;;;0.20;;
43606;SDS011;29197;44.788;10.366;2023-04-25T09:59:22;1.83;;;0.57;;
43606;SDS011;29197;44.788;10.366;2023-04-25T10:02:11;0.50;;;0.40;;
43606;SDS011;29197;44.788;10.366;2023-04-25T10:05:00;0.50;;;0.40;;
43606;SDS011;29197;44.788;10.366;2023-04-25T10:07:51;8.50;;;1.83;;
43606;SDS011;29197;44.788;10.366;2023-04-25T10:10:40;0.90;;;0.50;;
43606;SDS011;29197;44.788;10.366;2023-04-25T10:13:29;0.45;;;0.40;;
43606;SDS011;29197;44.788;10.366;2023-04-25T10:16:19;1.05;;;0.60;;
43606;SDS011;29197;44.788;10.366;2023-04-25T10:19:08;1.63;;;0.63;;
43606;SDS011;29197;44.788;10.366;2023-04-25T10:22:00;4.40;;;0.70;;
43606;SDS011;29197;44.788;10.366;2023-04-25T10:24:52;1.20;;;0.40;;
43606;SDS011;29197;44.788;10.366;2023-04-25T10:27:42;0.70;;;0.50;;
43606;SDS011;29197;44.788;10.366;2023-04-25T10:30:31;2.67;;;0.60;;
43606;SDS011;29197;44.788;10.366;2023-04-25T10:33:21;1.17;;;0.68;;
43606;SDS011;29197;44.788;10.366;2023-04-25T10:36:18;1.80;;;0.70;;
43606;SDS011;29197;44.788;10.366;2023-04-25T10:39:09;1.20;;;0.80;;
43606;SDS011;29197;44.788;10.366;2023-04-25T10:41:59;1.42;;;0.60;;
43606;SDS011;29197;44.788;10.366;2023-04-25T10:45:00;1.75;;;0.90;;
43606;SDS011;29197;44.788;10.366;2023-04-25T10:47:50;3.00;;;0.90;;
43606;SDS011;29197;44.788;10.366;2023-04-25T10:50:39;1.92;;;1.00;;
43606;SDS011;29197;44.788;10.366;2023-04-25T10:53:30;2.42;;;0.80;;
43606;SDS011;29197;44.788;10.366;2023-04-25T10:56:21;1.60;;;0.90;;
43606;SDS011;29197;44.788;10.366;2023-04-25T10:59:12;1.02;;;0.88;;
43606;SDS011;29197;44.788;10.366;2023-04-25T11:02:01;1.50;;;0.90;;
43606;SDS011;29197;44.788;10.366;2023-04-25T11:05:00;2.10;;;1.23;;
43606;SDS011;29197;44.788;10.366;2023-04-25T11:07:51;0.90;;;0.80;;
43606;SDS011;29197;44.788;10.366;2023-04-25T11:10:53;1.30;;;1.20;;
43606;SDS011;29197;44.788;10.366;2023-04-25T11:13:42;1.67;;;1.10;;
43606;SDS011;29197;44.788;10.366;2023-04-25T11:16:32;1.38;;;0.95;;
43606;SDS011;29197;44.788;10.366;2023-04-25T11:19:23;2.30;;;1.10;;
43606;SDS011;29197;44.788;10.366;2023-04-25T11:22:13;1.95;;;1.20;;
43606;SDS011;29197;44.788;10.366;2023-04-25T11:25:04;2.42;;;1.15;;
43606;SDS011;29197;44.788;10.366;2023-04-25T11:27:54;2.03;;;1.08;;
43606;SDS011;29197;44.788;10.366;2023-04-25T11:30:47;1.85;;;1.20;;
43606;SDS011;29197;44.788;10.366;2023-04-25T11:33:38;1.98;;;1.05;;
43606;SDS011;29197;44.788;10.366;2023-04-25T11:36:27;1.67;;;1.10;;
43606;SDS011;29197;44.788;10.366;2023-04-25T11:39:17;1.90;;;1.10;;
43606;SDS011;29197;44.788;10.366;2023-04-25T11:42:06;2.72;;;1.73;;
43606;SDS011;29197;44.788;10.366;2023-04-25T11:44:59;4.90;;;1.58;;
43606;SDS011;29197;44.788;10.366;2023-04-25T11:47:48;1.38;;;1.17;;
43606;SDS011;29197;44.788;10.366;2023-04-25T11:50:39;2.03;;;1.57;;
43606;SDS011;29197;44.788;10.366;2023-04-25T11:53:28;5.60;;;1.80;;
43606;SDS011;29197;44.788;10.366;2023-04-25T11:56:17;1.67;;;0.98;;
43606;SDS011;29197;44.788;10.366;2023-04-25T11:59:05;1.65;;;1.00;;
43606;SDS011;29197;44.788;10.366;2023-04-25T12:01:54;1.10;;;0.70;;
43606;SDS011;29197;44.788;10.366;2023-04-25T12:04:44;1.20;;;0.80;;
43606;SDS011;29197;44.788;10.366;2023-04-25T12:07:35;0.70;;;0.70;;
43606;SDS011;29197;44.788;10.366;2023-04-25T12:10:24;0.73;;;0.55;;
43606;SDS011;29197;44.788;10.366;2023-04-25T12:13:20;1.75;;;0.80;;
43606;SDS011;29197;44.788;10.366;2023-04-25T12:16:09;1.13;;;0.60;;
43606;SDS011;29197;44.788;10.366;2023-04-25T12:18:58;2.03;;;0.80;;
43606;SDS011;29197;44.788;10.366;2023-04-25T12:21:46;2.00;;;0.52;;
43606;SDS011;29197;44.788;10.366;2023-04-25T12:24:48;1.33;;;0.70;;
43606;SDS011;29197;44.788;10.366;2023-04-25T12:27:37;2.42;;;1.00;;
43606;SDS011;29197;44.788;10.366;2023-04-25T12:30:26;2.47;;;1.07;;
43606;SDS011;29197;44.788;10.366;2023-04-25T12:33:15;1.08;;;0.70;;
43606;SDS011;29197;44.788;10.366;2023-04-25T12:36:04;2.10;;;0.80;;
43606;SDS011;29197;44.788;10.366;2023-04-25T12:38:55;0.75;;;0.50;;
43606;SDS011;29197;44.788;10.366;2023-04-25T12:41:52;1.05;;;0.60;;
43606;SDS011;29197;44.788;10.366;2023-04-25T12:44:41;1.15;;;0.60;;
43606;SDS011;29197;44.788;10.366;2023-04-25T12:47:29;1.93;;;0.80;;
43606;SDS011;29197;44.788;10.366;2023-04-25T12:50:21;0.88;;;0.70;;
43606;SDS011;29197;44.788;10.366;2023-04-25T12:53:10;1.42;;;0.80;;
43606;SDS011;29197;44.788;10.366;2023-04-25T12:55:59;1.05;;;0.60;;
43606;SDS011;29197;44.788;10.366;2023-04-25T12:58:49;2.42;;;0.90;;
43606;SDS011;29197;44.788;10.366;2023-04-25T13:01:38;1.58;;;0.63;;
43606;SDS011;29197;44.788;10.366;2023-04-25T13:04:27;1.03;;;0.60;;
43606;SDS011;29197;44.788;10.366;2023-04-25T13:07:16;1.10;;;0.70;;
43606;SDS011;29197;44.788;10.366;2023-04-25T13:10:05;1.40;;;1.07;;
43606;SDS011;29197;44.788;10.366;2023-04-25T13:12:54;2.35;;;1.00;;
43606;SDS011;29197;44.788;10.366;2023-04-25T13:15:44;2.00;;;1.00;;
43606;SDS011;29197;44.788;10.366;2023-04-25T13:18:33;1.77;;;1.15;;
43606;SDS011;29197;44.788;10.366;2023-04-25T13:21:22;1.60;;;0.93;;
43606;SDS011;29197;44.788;10.366;2023-04-25T13:24:10;2.07;;;1.00;;
43606;SDS011;29197;44.788;10.366;2023-04-25T13:26:59;1.90;;;0.80;;
43606;SDS011;29197;44.788;10.366;2023-04-25T13:29:49;1.40;;;0.73;;
43606;SDS011;29197;44.788;10.366;2023-04-25T13:32:39;3.05;;;1.00;;
43606;SDS011;29197;44.788;10.366;2023-04-25T13:35:28;1.08;;;0.98;;
43606;SDS011;29197;44.788;10.366;2023-04-25T13:38:17;0.98;;;0.75;;
43606;SDS011;29197;44.788;10.366;2023-04-25T13:41:06;1.02;;;0.80;;
43606;SDS011;29197;44.788;10.366;2023-04-25T13:43:54;0.85;;;0.70;;
43606;SDS011;29197;44.788;10.366;2023-04-25T13:46:43;2.08;;;0.80;;
43606;SDS011;29197;44.788;10.366;2023-04-25T13:49:35;0.82;;;0.60;;
43606;SDS011;29197;44.788;10.366;2023-04-25T13:52:24;1.90;;;0.98;;
43606;SDS011;29197;44.788;10.366;2023-04-25T13:55:13;1.47;;;0.73;;
43606;SDS011;29197;44.788;10.366;2023-04-25T13:58:02;1.15;;;0.65;;
43606;SDS011;29197;44.788;10.366;2023-04-25T14:00:54;1.75;;;0.90;;
43606;SDS011;29197;44.788;10.366;2023-04-25T14:03:42;0.70;;;0.60;;
43606;SDS011;29197;44.788;10.366;2023-04-25T14:06:33;1.25;;;0.60;;
43606;SDS011;29197;44.788;10.366;2023-04-25T14:09:22;1.10;;;0.68;;
43606;SDS011;29197;44.788;10.366;2023-04-25T14:12:12;0.77;;;0.40;;
43606;SDS011;29197;44.788;10.366;2023-04-25T14:15:01;0.43;;;0.43;;
43606;SDS011;29197;44.788;10.366;2023-04-25T14:17:49;0.40;;;0.40;;
43606;SDS011;29197;44.788;10.366;2023-04-25T14:20:38;0.85;;;0.70;;
43606;SDS011;29197;44.788;10.366;2023-04-25T14:23:29;2.38;;;0.70;;
43606;SDS011;29197;44.788;10.366;2023-04-25T14:26:18;1.75;;;0.60;;
43606;SDS011;29197;44.788;10.366;2023-04-25T14:29:06;1.03;;;0.63;;
43606;SDS011;29197;44.788;10.366;2023-04-25T14:31:58;0.70;;;0.60;;
43606;SDS011;29197;44.788;10.366;2023-04-25T14:34:47;1.50;;;0.70;;
43606;SDS011;29197;44.788;10.366;2023-04-25T14:37:35;0.90;;;0.60;;
43606;SDS011;29197;44.788;10.366;2023-04-25T14:40:25;0.80;;;0.70;;
43606;SDS011;29197;44.788;10.366;2023-04-25T14:43:14;0.53;;;0.47;;
43606;SDS011;29197;44.788;10.366;2023-04-25T14:46:03;1.02;;;0.30;;
43606;SDS011;29197;44.788;10.366;2023-04-25T14:48:51;0.68;;;0.50;;
43606;SDS011;29197;44.788;10.366;2023-04-25T14:51:42;1.35;;;0.55;;
43606;SDS011;29197;44.788;10.366;2023-04-25T14:54:31;1.40;;;0.82;;
43606;SDS011;29197;44.788;10.366;2023-04-25T14:57:21;1.10;;;0.80;;
43606;SDS011;29197;44.788;10.366;2023-04-25T15:00:10;1.20;;;0.60;;
43606;SDS011;29197;44.788;10.366;2023-04-25T15:03:03;1.93;;;0.90;;
43606;SDS011;29197;44.788;10.366;2023-04-25T15:05:52;1.23;;;0.90;;
43606;SDS011;29197;44.788;10.366;2023-04-25T15:08:43;1.65;;;0.77;;
43606;SDS011;29197;44.788;10.366;2023-04-25T15:11:31;1.80;;;0.98;;
43606;SDS011;29197;44.788;10.366;2023-04-25T15:14:21;1.00;;;0.90;;
43606;SDS011;29197;44.788;10.366;2023-04-25T15:17:10;1.08;;;0.77;;
43606;SDS011;29197;44.788;10.366;2023-04-25T15:20:00;2.22;;;0.80;;
43606;SDS011;29197;44.788;10.366;2023-04-25T15:22:49;0.60;;;0.50;;
43606;SDS011;29197;44.788;10.366;2023-04-25T15:25:37;0.47;;;0.47;;
43606;SDS011;29197;44.788;10.366;2023-04-25T15:28:26;0.68;;;0.57;;
43606;SDS011;29197;44.788;10.366;2023-04-25T15:31:17;0.50;;;0.50;;
43606;SDS011;29197;44.788;10.366;2023-04-25T15:34:05;3.93;;;0.80;;
43606;SDS011;29197;44.788;10.366;2023-04-25T15:36:54;0.65;;;0.50;;
43606;SDS011;29197;44.788;10.366;2023-04-25T15:39:44;1.50;;;0.50;;
43606;SDS011;29197;44.788;10.366;2023-04-25T15:42:32;1.27;;;0.30;;
43606;SDS011;29197;44.788;10.366;2023-04-25T15:45:21;1.17;;;0.40;;
43606;SDS011;29197;44.788;10.366;2023-04-25T15:48:13;3.20;;;0.68;;
43606;SDS011;29197;44.788;10.366;2023-04-25T15:51:01;1.45;;;0.28;;
43606;SDS011;29197;44.788;10.366;2023-04-25T15:53:50;1.48;;;0.20;;
43606;SDS011;29197;44.788;10.366;2023-04-25T15:56:40;0.90;;;0.50;;
43606;SDS011;29197;44.788;10.366;2023-04-25T15:59:28;1.48;;;0.43;;
43606;SDS011;29197;44.788;10.366;2023-04-25T16:02:17;0.70;;;0.40;;
43606;SDS011;29197;44.788;10.366;2023-04-25T16:05:08;0.60;;;0.50;;
43606;SDS011;29197;44.788;10.366;2023-04-25T16:07:58;2.55;;;0.50;;
43606;SDS011;29197;44.788;10.366;2023-04-25T16:10:47;0.93;;;0.40;;
43606;SDS011;29197;44.788;10.366;2023-04-25T16:13:36;0.80;;;0.30;;
43606;SDS011;29197;44.788;10.366;2023-04-25T16:16:25;0.70;;;0.40;;
43606;SDS011;29197;44.788;10.366;2023-04-25T16:19:13;0.80;;;0.30;;
43606;SDS011;29197;44.788;10.366;2023-04-25T16:22:03;0.30;;;0.30;;
43606;SDS011;29197;44.788;10.366;2023-04-25T16:24:54;1.10;;;0.40;;
43606;SDS011;29197;44.788;10.366;2023-04-25T16:27:42;1.47;;;0.63;;
43606;SDS011;29197;44.788;10.366;2023-04-25T16:30:31;5.40;;;0.77;;
43606;SDS011;29197;44.788;10.366;2023-04-25T16:33:20;1.80;;;0.70;;
43606;SDS011;29197;44.788;10.366;2023-04-25T16:36:09;0.93;;;0.40;;
43606;SDS011;29197;44.788;10.366;2023-04-25T16:39:00;0.85;;;0.40;;
43606;SDS011;29197;44.788;10.366;2023-04-25T16:41:48;0.90;;;0.73;;
43606;SDS011;29197;44.788;10.366;2023-04-25T16:44:37;0.50;;;0.30;;